createdAt,value
2018-06-11T00:01:48.270Z,8.70
2018-06-11T00:04:16.464Z,9.25
2018-06-11T00:06:44.654Z,9.60
2018-06-11T00:09:12.573Z,8.67
2018-06-11T00:11:40.787Z,8.50
2018-06-11T00:14:08.952Z,8.70
2018-06-11T00:16:37.124Z,9.67
2018-06-11T00:19:05.379Z,8.87
2018-06-11T00:21:33.512Z,8.53
2018-06-11T00:24:01.660Z,8.87
2018-06-11T00:26:29.873Z,8.15
2018-06-11T00:28:58.018Z,7.90
2018-06-11T00:31:25.923Z,8.20
2018-06-11T00:33:54.091Z,9.37
2018-06-11T00:36:22.282Z,8.73
2018-06-11T00:38:50.431Z,8.73
2018-06-11T00:41:18.600Z,8.77
2018-06-11T00:43:46.800Z,8.57
2018-06-11T00:46:14.942Z,8.27
2018-06-11T00:48:43.090Z,8.55
2018-06-11T00:51:11.267Z,7.80
2018-06-11T00:53:39.437Z,7.80
2018-06-11T00:56:08.551Z,9.27
2018-06-11T00:58:36.766Z,8.80
2018-06-11T01:01:05.371Z,8.37
2018-06-11T01:03:33.551Z,8.40
2018-06-11T01:06:01.719Z,8.63
2018-06-11T01:08:29.866Z,7.83
2018-06-11T01:10:58.043Z,8.95
2018-06-11T01:13:26.178Z,8.20
2018-06-11T01:15:54.381Z,8.50
2018-06-11T01:18:22.529Z,8.50
2018-06-11T01:20:50.682Z,8.80
2018-06-11T01:23:18.880Z,8.57
2018-06-11T01:25:47.031Z,9.17
2018-06-11T01:28:15.206Z,8.90
2018-06-11T01:30:43.373Z,8.87
2018-06-11T01:36:04.635Z,8.40
2018-06-11T01:38:32.798Z,8.10
2018-06-11T01:41:00.951Z,9.50
2018-06-11T01:43:29.114Z,8.23
2018-06-11T01:45:57.270Z,8.93
2018-06-11T01:48:25.441Z,8.10
2018-06-11T01:50:53.615Z,8.30
2018-06-11T01:53:21.779Z,8.50
2018-06-11T01:55:49.939Z,9.30
2018-06-11T01:58:18.209Z,9.00
2018-06-11T02:00:46.366Z,9.13
2018-06-11T02:03:14.323Z,8.33
2018-06-11T02:05:42.511Z,9.40
2018-06-11T02:08:10.690Z,8.63
2018-06-11T02:10:38.834Z,8.23
2018-06-11T02:13:06.991Z,9.27
2018-06-11T02:15:35.156Z,8.70
2018-06-11T02:18:03.332Z,9.03
2018-06-11T02:20:31.531Z,9.20
2018-06-11T02:22:59.707Z,8.40
2018-06-11T02:25:27.886Z,9.43
2018-06-11T02:27:56.068Z,9.37
2018-06-11T02:30:24.258Z,9.60
2018-06-11T02:32:52.265Z,9.00
2018-06-11T02:35:21.157Z,9.30
2018-06-11T02:37:49.382Z,8.13
2018-06-11T02:40:17.562Z,8.80
2018-06-11T02:42:45.765Z,8.80
2018-06-11T02:45:13.942Z,10.13
2018-06-11T02:47:42.147Z,9.53
2018-06-11T02:50:10.330Z,8.97
2018-06-11T02:52:38.487Z,9.40
2018-06-11T02:55:06.762Z,8.77
2018-06-11T02:57:34.959Z,9.10
2018-06-11T03:00:03.112Z,9.17
2018-06-11T03:02:31.275Z,8.93
2018-06-11T03:04:59.495Z,9.10
2018-06-11T03:07:27.635Z,8.70
2018-06-11T03:09:55.851Z,9.07
2018-06-11T03:12:24.127Z,9.13
2018-06-11T03:14:52.312Z,9.77
2018-06-11T03:17:20.255Z,9.73
2018-06-11T03:19:48.443Z,9.40
2018-06-11T03:22:16.601Z,8.50
2018-06-11T03:24:44.764Z,8.70
2018-06-11T03:27:12.947Z,8.20
2018-06-11T03:29:41.106Z,8.33
2018-06-11T03:32:09.274Z,7.77
2018-06-11T03:34:37.430Z,9.00
2018-06-11T03:37:05.590Z,8.57
2018-06-11T03:39:33.751Z,8.00
2018-06-11T03:42:01.938Z,8.63
2018-06-11T03:44:30.093Z,8.57
2018-06-11T03:46:58.254Z,9.37
2018-06-11T03:49:26.184Z,9.70
2018-06-11T03:51:54.334Z,9.80
2018-06-11T03:54:22.510Z,9.23
2018-06-11T03:56:50.680Z,9.90
2018-06-11T03:59:18.875Z,8.70
2018-06-11T04:01:47.010Z,9.10
2018-06-11T04:04:15.360Z,9.43
2018-06-11T04:06:43.547Z,8.93
2018-06-11T04:09:11.745Z,10.07
2018-06-11T04:11:39.941Z,10.50
2018-06-11T04:14:08.482Z,8.80
2018-06-11T04:16:36.643Z,9.87
2018-06-11T04:19:04.991Z,10.17
2018-06-11T04:21:33.168Z,8.70
2018-06-11T04:24:01.323Z,8.63
2018-06-11T04:26:29.494Z,9.33
2018-06-11T04:28:57.652Z,8.73
2018-06-11T04:31:25.829Z,9.10
2018-06-11T04:33:53.999Z,9.67
2018-06-11T04:36:22.159Z,9.33
2018-06-11T04:38:50.332Z,9.00
2018-06-11T04:41:18.267Z,8.37
2018-06-11T04:43:46.459Z,8.10
2018-06-11T04:46:14.652Z,8.90
2018-06-11T04:48:42.821Z,8.37
2018-06-11T04:51:10.990Z,9.40
2018-06-11T04:53:39.186Z,8.93
2018-06-11T04:56:07.367Z,9.30
2018-06-11T04:58:37.791Z,8.83
2018-06-11T05:01:05.959Z,11.07
2018-06-11T05:03:34.111Z,10.67
2018-06-11T05:06:02.306Z,11.17
2018-06-11T05:08:30.481Z,11.03
2018-06-11T05:10:58.642Z,11.33
2018-06-11T05:13:26.802Z,10.67
2018-06-11T05:15:54.953Z,11.40
2018-06-11T05:18:23.146Z,11.17
2018-06-11T05:20:51.327Z,10.32
2018-06-11T05:23:19.486Z,11.23
2018-06-11T05:25:47.709Z,10.57
2018-06-11T05:28:15.903Z,10.67
2018-06-11T05:39:06.047Z,10.67
2018-06-11T05:41:34.264Z,12.17
2018-06-11T05:44:02.440Z,12.20
2018-06-11T05:46:30.361Z,11.90
2018-06-11T05:48:58.558Z,12.70
2018-06-11T05:51:26.723Z,13.50
2018-06-11T05:53:54.927Z,14.07
2018-06-11T05:56:23.108Z,12.30
2018-06-11T05:58:51.264Z,13.10
2018-06-11T06:01:19.483Z,13.32
2018-06-11T06:03:47.661Z,13.93
2018-06-11T06:06:15.855Z,12.97
2018-06-11T06:08:44.020Z,12.40
2018-06-11T06:11:12.190Z,12.55
2018-06-11T06:13:40.339Z,13.00
2018-06-11T06:16:08.304Z,12.97
2018-06-11T06:18:36.680Z,12.83
2018-06-11T06:21:05.794Z,12.77
2018-06-11T06:23:33.966Z,12.00
2018-06-11T06:26:02.160Z,12.37
2018-06-11T06:28:30.371Z,14.60
2018-06-11T06:30:58.526Z,14.00
2018-06-11T06:33:26.739Z,13.60
2018-06-11T06:35:54.921Z,12.00
2018-06-11T06:38:23.093Z,13.97
2018-06-11T06:40:51.301Z,13.13
2018-06-11T06:43:19.555Z,12.80
2018-06-11T06:45:47.757Z,13.50
2018-06-11T06:48:15.950Z,13.10
2018-06-11T06:50:44.117Z,13.20
2018-06-11T06:53:15.579Z,14.90
2018-06-11T06:55:43.754Z,13.60
2018-06-11T06:58:11.931Z,13.63
2018-06-11T07:00:40.127Z,12.70
2018-06-11T07:03:08.328Z,14.33
2018-06-11T07:05:36.479Z,12.90
2018-06-11T07:08:04.683Z,13.63
2018-06-11T07:10:32.811Z,12.93
2018-06-11T07:13:00.988Z,13.83
2018-06-11T07:15:29.162Z,13.13
2018-06-11T07:17:57.331Z,13.67
2018-06-11T07:20:25.530Z,13.60
2018-06-11T07:22:53.725Z,16.80
2018-06-11T07:25:21.897Z,12.97
2018-06-11T07:27:50.078Z,16.48
2018-06-11T07:30:18.268Z,13.50
2018-06-11T07:32:46.461Z,12.77
2018-06-11T07:35:14.634Z,13.13
2018-06-11T07:37:42.861Z,12.83
2018-06-11T07:40:11.072Z,11.00
2018-06-11T07:42:39.249Z,11.43
2018-06-11T07:45:07.455Z,12.40
2018-06-11T07:47:35.640Z,11.90
2018-06-11T07:50:03.848Z,11.68
2018-06-11T07:52:31.995Z,12.93
2018-06-11T07:55:00.143Z,12.03
2018-06-11T07:57:28.306Z,13.10
2018-06-11T08:09:07.206Z,11.87
2018-06-11T08:11:35.402Z,13.00
2018-06-11T08:14:04.514Z,11.17
2018-06-11T08:16:32.696Z,10.23
2018-06-11T08:19:00.874Z,9.67
2018-06-11T08:21:29.026Z,10.50
2018-06-11T08:23:57.230Z,10.10
2018-06-11T08:26:25.446Z,10.08
2018-06-11T08:28:53.615Z,9.33
2018-06-11T08:31:21.796Z,9.30
2018-06-11T08:33:50.009Z,9.47
2018-06-11T08:36:18.151Z,9.90
2018-06-11T08:38:46.344Z,10.80
2018-06-11T08:41:14.499Z,9.60
2018-06-11T08:43:42.666Z,10.33
2018-06-11T08:46:10.606Z,10.50
2018-06-11T08:48:38.845Z,8.68
2018-06-11T08:51:07.035Z,10.37
2018-06-11T08:53:35.203Z,9.13
2018-06-11T08:56:03.363Z,10.63
2018-06-11T08:58:31.545Z,9.23
2018-06-11T09:00:59.725Z,9.83
2018-06-11T09:03:27.878Z,9.77
2018-06-11T09:05:56.065Z,9.37
2018-06-11T09:08:24.003Z,10.63
2018-06-11T09:10:52.162Z,9.53
2018-06-11T09:13:20.340Z,10.10
2018-06-11T09:15:48.515Z,9.53
2018-06-11T09:18:16.758Z,9.70
2018-06-11T09:20:44.843Z,10.53
2018-06-11T09:23:13.005Z,11.80
2018-06-11T09:25:41.158Z,10.07
2018-06-11T09:28:09.539Z,10.07
2018-06-11T09:30:37.695Z,9.90
2018-06-11T09:33:05.846Z,9.93
2018-06-11T09:35:34.018Z,10.17
2018-06-11T09:38:02.211Z,9.23
2018-06-11T09:40:30.374Z,9.00
2018-06-11T09:42:58.564Z,9.50
2018-06-11T09:45:26.746Z,9.80
2018-06-11T09:47:54.917Z,9.83
2018-06-11T09:50:23.095Z,9.50
2018-06-11T10:01:41.291Z,9.37
2018-06-11T10:04:09.474Z,9.23
2018-06-11T10:06:37.622Z,9.45
2018-06-11T10:09:07.796Z,8.18
2018-06-11T10:11:36.090Z,8.60
2018-06-11T10:14:04.744Z,8.83
2018-06-11T10:16:32.961Z,9.20
2018-06-11T10:19:01.320Z,8.40
2018-06-11T10:21:29.456Z,9.00
2018-06-11T10:23:57.639Z,8.90
2018-06-11T10:26:25.815Z,7.80
2018-06-11T10:28:53.982Z,8.90
2018-06-11T10:31:22.158Z,8.53
2018-06-11T10:33:50.315Z,7.63
2018-06-11T10:36:18.493Z,7.53
2018-06-11T10:38:46.425Z,9.27
2018-06-11T10:41:15.365Z,8.13
2018-06-11T10:43:43.283Z,8.00
2018-06-11T10:46:11.443Z,7.80
2018-06-11T10:48:39.607Z,8.37
2018-06-11T10:51:07.743Z,7.73
2018-06-11T10:53:35.942Z,7.80
2018-06-11T10:56:04.175Z,7.23
2018-06-11T10:58:32.367Z,7.10
2018-06-11T11:01:00.575Z,8.33
2018-06-11T11:03:28.836Z,8.13
2018-06-11T11:05:56.990Z,7.77
2018-06-11T11:08:25.152Z,7.67
2018-06-11T11:10:53.334Z,7.40
2018-06-11T11:13:21.484Z,7.63
2018-06-11T11:15:49.654Z,7.57
2018-06-11T11:18:17.818Z,8.03
2018-06-11T11:20:45.978Z,7.10
2018-06-11T11:23:14.186Z,8.40
2018-06-11T11:25:42.416Z,7.87
2018-06-11T11:28:10.619Z,7.83
2018-06-11T11:30:38.775Z,7.83
2018-06-11T11:33:06.972Z,8.17
2018-06-11T11:35:35.143Z,7.07
2018-06-11T11:38:03.366Z,6.43
2018-06-11T11:40:31.540Z,6.13
2018-06-11T11:42:59.694Z,6.63
2018-06-11T11:45:27.854Z,6.10
2018-06-11T11:47:56.043Z,5.90
2018-06-11T11:50:24.202Z,7.30
2018-06-11T11:52:52.378Z,6.27
2018-06-11T11:55:20.550Z,6.50
2018-06-11T11:57:48.729Z,6.43
2018-06-11T12:00:16.890Z,6.70
2018-06-11T12:02:45.081Z,7.20
2018-06-11T12:05:13.243Z,7.60
2018-06-11T12:07:41.441Z,7.70
2018-06-11T12:10:09.587Z,7.17
2018-06-11T12:12:37.766Z,7.10
2018-06-11T12:15:05.950Z,6.63
2018-06-11T12:17:34.088Z,8.70
2018-06-11T12:20:02.563Z,8.50
2018-06-11T12:22:30.755Z,6.70
2018-06-11T12:24:58.933Z,5.37
2018-06-11T12:27:27.095Z,4.83
2018-06-11T12:29:55.289Z,4.33
2018-06-11T12:32:23.486Z,4.80
2018-06-11T12:34:51.662Z,3.43
2018-06-11T12:37:19.861Z,4.40
2018-06-11T12:39:48.049Z,4.00
2018-06-11T12:42:16.236Z,4.47
2018-06-11T12:44:44.451Z,3.50
2018-06-11T12:47:12.626Z,4.80
2018-06-11T12:49:40.823Z,3.40
2018-06-11T12:52:09.006Z,3.57
2018-06-11T12:54:37.194Z,3.20
2018-06-11T12:57:05.364Z,3.50
2018-06-11T12:59:33.523Z,2.57
2018-06-11T13:02:01.755Z,2.90
2018-06-11T13:04:29.975Z,2.47
2018-06-11T13:06:58.171Z,2.70
2018-06-11T13:09:26.475Z,2.80
2018-06-11T13:11:54.630Z,2.27
2018-06-11T13:14:22.831Z,2.30
2018-06-11T13:16:51.087Z,1.93
2018-06-11T13:19:19.272Z,2.07
2018-06-11T13:21:47.447Z,2.00
2018-06-11T13:24:15.612Z,2.53
2018-06-11T13:26:43.772Z,2.00
2018-06-11T13:29:11.938Z,2.30
2018-06-11T13:31:40.118Z,2.10
2018-06-11T13:34:08.347Z,1.80
2018-06-11T13:36:37.432Z,2.58
2018-06-11T13:39:07.807Z,2.10
2018-06-11T13:41:36.005Z,2.30
2018-06-11T13:44:04.195Z,2.40
2018-06-11T13:46:32.359Z,2.70
2018-06-11T13:49:00.512Z,2.30
2018-06-11T13:51:28.675Z,2.27
2018-06-11T13:53:56.854Z,1.93
2018-06-11T13:56:25.019Z,3.13
2018-06-11T13:58:53.195Z,2.55
2018-06-11T14:01:21.344Z,2.93
2018-06-11T14:03:49.511Z,2.33
2018-06-11T14:06:17.690Z,2.80
2018-06-11T14:08:45.996Z,2.83
2018-06-11T14:11:14.167Z,2.70
2018-06-11T14:13:42.355Z,2.33
2018-06-11T14:16:10.519Z,2.50
2018-06-11T14:18:38.692Z,2.87
2018-06-11T14:21:06.890Z,2.70
2018-06-11T14:23:35.102Z,3.00
2018-06-11T14:26:03.248Z,2.43
2018-06-11T14:28:31.499Z,3.13
2018-06-11T14:30:59.668Z,2.53
2018-06-11T14:33:27.840Z,2.37
2018-06-11T14:35:56.070Z,2.17
2018-06-11T14:38:24.236Z,2.67
2018-06-11T14:40:52.417Z,2.90
2018-06-11T14:43:20.602Z,2.57
2018-06-11T14:45:48.914Z,3.00
2018-06-11T14:48:17.099Z,2.27
2018-06-11T14:50:45.309Z,2.37
2018-06-11T14:53:13.476Z,2.43
2018-06-11T14:55:41.648Z,3.10
2018-06-11T14:58:09.858Z,2.77
2018-06-11T15:00:37.980Z,3.13
2018-06-11T15:03:06.152Z,2.30
2018-06-11T15:05:34.337Z,2.72
2018-06-11T15:08:02.506Z,2.58
2018-06-11T15:10:30.663Z,3.00
2018-06-11T15:12:58.856Z,2.47
2018-06-11T15:15:27.021Z,3.10
2018-06-11T15:17:55.192Z,2.80
2018-06-11T15:20:23.382Z,3.30
2018-06-11T15:22:51.564Z,3.50
2018-06-11T15:25:19.736Z,3.10
2018-06-11T15:27:47.894Z,2.80
2018-06-11T15:30:16.078Z,3.43
2018-06-11T15:32:44.249Z,2.57
2018-06-11T15:35:12.404Z,2.77
2018-06-11T15:37:40.584Z,2.30
2018-06-11T15:40:08.793Z,2.60
2018-06-11T15:42:36.964Z,2.70
2018-06-11T15:45:05.147Z,2.90
2018-06-11T15:47:33.306Z,2.60
2018-06-11T15:50:01.553Z,3.07
2018-06-11T15:52:29.679Z,3.10
2018-06-11T15:54:57.907Z,4.00
2018-06-11T15:57:26.073Z,3.50
2018-06-11T15:59:54.255Z,14.18
2018-06-11T16:02:22.428Z,3.07
2018-06-11T16:04:50.666Z,2.80
2018-06-11T16:07:18.837Z,3.50
2018-06-11T16:09:47.005Z,3.93
2018-06-11T16:12:15.186Z,3.07
2018-06-11T16:14:43.523Z,3.53
2018-06-11T16:17:11.698Z,3.70
2018-06-11T16:19:39.863Z,3.43
2018-06-11T16:22:08.063Z,3.22
2018-06-11T16:24:36.262Z,3.20
2018-06-11T16:27:04.450Z,3.10
2018-06-11T16:29:32.755Z,3.40
2018-06-11T16:32:01.595Z,2.50
2018-06-11T16:34:29.760Z,2.70
2018-06-11T16:36:57.960Z,3.10
2018-06-11T16:39:26.126Z,2.87
2018-06-11T16:41:54.312Z,2.40
2018-06-11T16:44:24.283Z,1.98
2018-06-11T16:46:53.617Z,2.63
2018-06-11T16:49:23.693Z,2.43
2018-06-11T16:51:51.877Z,2.40
2018-06-11T16:54:20.047Z,1.85
2018-06-11T16:56:48.239Z,1.80
2018-06-11T16:59:16.395Z,1.83
2018-06-11T17:01:44.539Z,1.80
2018-06-11T17:04:12.710Z,1.70
2018-06-11T17:06:40.880Z,1.70
2018-06-11T17:09:09.058Z,2.13
2018-06-11T17:11:37.645Z,1.70
2018-06-11T17:14:05.814Z,1.70
2018-06-11T17:16:35.509Z,1.60
2018-06-11T17:19:03.654Z,1.97
2018-06-11T17:21:31.841Z,1.60
2018-06-11T17:23:59.989Z,1.43
2018-06-11T17:26:28.190Z,1.40
2018-06-11T17:28:56.768Z,1.50
2018-06-11T17:31:24.911Z,2.10
2018-06-11T17:33:53.072Z,1.30
2018-06-11T17:36:21.236Z,2.07
2018-06-11T17:38:49.383Z,1.30
2018-06-11T17:41:17.564Z,1.30
2018-06-11T17:43:45.535Z,1.83
2018-06-11T17:46:13.698Z,2.07
2018-06-11T17:48:41.892Z,1.43
2018-06-11T17:51:10.118Z,1.63
2018-06-11T17:53:38.261Z,1.37
2018-06-11T17:56:06.494Z,1.63
2018-06-11T17:58:34.704Z,1.80
2018-06-11T18:01:02.787Z,1.40
2018-06-11T18:03:30.918Z,1.70
2018-06-11T18:05:59.101Z,1.60
2018-06-11T18:08:27.314Z,1.37
2018-06-11T18:10:55.479Z,1.60
2018-06-11T18:13:23.663Z,1.20
2018-06-11T18:15:51.825Z,1.50
2018-06-11T18:18:20.008Z,1.40
2018-06-11T18:20:48.194Z,1.53
2018-06-11T18:23:16.336Z,1.63
2018-06-11T18:25:44.534Z,1.87
2018-06-11T18:28:12.703Z,1.33
2018-06-11T18:30:40.912Z,1.50
2018-06-11T18:33:09.093Z,1.62
2018-06-11T18:35:37.271Z,1.50
2018-06-11T18:38:05.245Z,1.80
2018-06-11T18:40:33.441Z,1.33
2018-06-11T18:43:01.636Z,1.30
2018-06-11T18:45:29.817Z,1.30
2018-06-11T18:47:57.975Z,1.60
2018-06-11T18:50:26.111Z,1.10
2018-06-11T18:52:54.047Z,1.40
2018-06-11T18:55:22.216Z,1.40
2018-06-11T18:57:50.389Z,1.00
2018-06-11T19:00:18.543Z,1.40
2018-06-11T19:02:46.733Z,1.50
2018-06-11T19:05:14.881Z,1.30
2018-06-11T19:07:43.044Z,1.33
2018-06-11T19:10:11.219Z,1.40
2018-06-11T19:12:39.400Z,1.23
2018-06-11T19:15:07.579Z,1.33
2018-06-11T19:17:35.759Z,1.45
2018-06-11T19:20:04.171Z,1.20
2018-06-11T19:22:32.346Z,1.23
2018-06-11T19:25:00.506Z,1.30
2018-06-11T19:27:28.695Z,1.50
2018-06-11T19:29:56.871Z,1.30
2018-06-11T19:32:25.081Z,1.30
2018-06-11T19:34:53.239Z,1.30
2018-06-11T19:37:21.388Z,1.40
2018-06-11T19:39:49.577Z,1.70
2018-06-11T19:42:17.715Z,1.20
2018-06-11T19:44:45.900Z,1.47
2018-06-11T19:47:14.085Z,1.90
2018-06-11T19:49:42.235Z,1.40
2018-06-11T19:52:10.416Z,1.67
2018-06-11T19:54:38.557Z,1.67
2018-06-11T19:57:06.706Z,1.70
2018-06-11T19:59:34.858Z,1.80
2018-06-11T20:02:03.020Z,2.20
2018-06-11T20:04:31.201Z,2.17
2018-06-11T20:06:59.368Z,2.10
2018-06-11T20:09:27.512Z,2.07
2018-06-11T20:11:55.672Z,2.20
2018-06-11T20:14:23.852Z,2.23
2018-06-11T20:16:52.010Z,2.20
2018-06-11T20:19:20.218Z,1.97
2018-06-11T20:21:48.406Z,1.67
2018-06-11T20:24:16.560Z,2.27
2018-06-11T20:26:44.727Z,1.77
2018-06-11T20:29:12.858Z,1.93
2018-06-11T20:31:41.023Z,2.33
2018-06-11T20:34:09.192Z,2.22
2018-06-11T20:36:37.380Z,2.23
2018-06-11T20:39:07.389Z,2.33
2018-06-11T20:41:35.568Z,2.23
2018-06-11T20:44:03.740Z,2.17
2018-06-11T20:46:32.171Z,2.40
2018-06-11T20:49:00.310Z,2.50
2018-06-11T20:51:28.468Z,2.00
2018-06-11T20:53:56.635Z,2.87
2018-06-11T20:56:24.819Z,2.80
2018-06-11T20:58:52.982Z,2.20
2018-06-11T21:01:21.162Z,2.20
2018-06-11T21:03:49.342Z,2.00
2018-06-11T21:06:17.513Z,2.03
2018-06-11T21:08:45.689Z,2.10
2018-06-11T21:11:13.899Z,2.30
2018-06-11T21:13:42.055Z,2.30
2018-06-11T21:19:02.864Z,2.77
2018-06-11T21:21:36.726Z,2.70
2018-06-11T21:24:05.072Z,2.50
2018-06-11T21:26:33.252Z,2.58
2018-06-11T21:29:01.456Z,2.60
2018-06-11T21:31:29.604Z,2.30
2018-06-11T21:33:57.826Z,2.30
2018-06-11T21:48:57.001Z,2.47
2018-06-11T21:51:25.202Z,2.30
2018-06-11T21:53:53.368Z,2.50
2018-06-11T21:56:21.535Z,2.37
2018-06-11T21:58:49.745Z,2.55
2018-06-11T22:01:17.914Z,3.03
2018-06-11T22:03:46.133Z,2.57
2018-06-11T22:06:14.011Z,2.30
2018-06-11T22:09:07.130Z,2.57
2018-06-11T22:11:35.295Z,3.00
2018-06-11T22:14:03.259Z,2.50
2018-06-11T22:16:31.404Z,2.70
2018-06-11T22:18:59.557Z,3.40
2018-06-11T22:21:27.803Z,3.00
2018-06-11T22:23:55.947Z,3.37
2018-06-11T22:26:24.144Z,3.20
2018-06-11T22:29:04.835Z,3.10
2018-06-11T22:31:33.007Z,3.03
2018-06-11T22:34:01.154Z,3.93
2018-06-11T22:36:29.063Z,4.20
2018-06-11T22:48:46.871Z,4.22
2018-06-11T22:51:15.087Z,4.08
2018-06-11T22:53:43.251Z,4.00
2018-06-11T22:56:11.415Z,4.50
2018-06-11T22:58:39.567Z,4.13
2018-06-11T23:01:08.655Z,4.80
2018-06-11T23:03:36.810Z,4.60
2018-06-11T23:06:04.967Z,4.40
2018-06-11T23:08:33.127Z,4.67
2018-06-11T23:11:01.314Z,4.30
2018-06-11T23:13:29.479Z,4.00
2018-06-11T23:15:57.651Z,3.60
2018-06-11T23:18:25.827Z,3.80
2018-06-11T23:20:53.970Z,4.43
2018-06-11T23:23:22.127Z,4.17
2018-06-11T23:25:50.302Z,3.70
2018-06-11T23:28:18.476Z,4.03
2018-06-11T23:30:46.664Z,4.20
2018-06-11T23:33:14.806Z,4.20
2018-06-11T23:35:42.962Z,4.28
2018-06-11T23:38:11.125Z,4.27
2018-06-11T23:40:39.274Z,4.70
2018-06-11T23:43:07.447Z,4.57
2018-06-11T23:45:35.641Z,4.80
2018-06-11T23:48:03.771Z,4.37
2018-06-11T23:50:31.929Z,4.27
2018-06-11T23:53:00.097Z,4.00
2018-06-11T23:55:28.249Z,3.93
2018-06-11T23:57:56.399Z,3.40
